createdAt,value
2022-12-11T00:03:48.727Z,100006.63
2022-12-11T00:08:53.490Z,100007.63
2022-12-11T00:13:57.667Z,100004.22
2022-12-11T00:19:00.473Z,100000.53
2022-12-11T00:24:03.264Z,100012.34
2022-12-11T00:29:08.294Z,100006.31
2022-12-11T00:34:12.089Z,99998.00
2022-12-11T00:39:14.925Z,99993.88
2022-12-11T00:44:19.315Z,99991.31
2022-12-11T00:49:22.098Z,99996.38
2022-12-11T00:54:24.889Z,99988.25
2022-12-11T00:59:29.432Z,100002.22
2022-12-11T01:04:32.228Z,100008.41
2022-12-11T01:09:52.305Z,100011.78
2022-12-11T01:14:56.450Z,100016.88
2022-12-11T01:19:59.378Z,100011.78
2022-12-11T01:25:02.196Z,100013.22
2022-12-11T01:30:09.338Z,100014.81
2022-12-11T01:35:13.449Z,100014.00
2022-12-11T01:40:18.332Z,100011.56
2022-12-11T01:45:36.428Z,100014.94
2022-12-11T01:50:43.182Z,100015.31
2022-12-11T01:55:47.177Z,100014.25
2022-12-11T02:00:53.195Z,100003.41
2022-12-11T02:05:56.147Z,100005.00
2022-12-11T02:11:08.052Z,100005.38
2022-12-11T02:16:20.350Z,99999.28
2022-12-11T02:21:27.819Z,99990.78
2022-12-11T02:26:56.788Z,99988.56
2022-12-11T02:32:05.970Z,99997.75
2022-12-11T02:37:13.276Z,99992.44
2022-12-11T02:42:17.232Z,99981.56
2022-12-11T02:47:22.438Z,99984.00
2022-12-11T02:52:27.259Z,99972.31
2022-12-11T02:57:36.043Z,99980.06
2022-12-11T03:02:42.183Z,99981.06
2022-12-11T03:07:45.985Z,99980.88
2022-12-11T03:12:53.757Z,99981.00
2022-12-11T03:18:05.216Z,99977.34
2022-12-11T03:23:21.135Z,99978.00
2022-12-11T03:28:30.474Z,99975.31
2022-12-11T03:33:38.642Z,99983.69
2022-12-11T03:38:49.078Z,99978.28
2022-12-11T03:43:55.475Z,99982.88
2022-12-11T03:49:02.810Z,99983.47
2022-12-11T03:54:06.739Z,99988.41
2022-12-11T03:59:09.875Z,99983.28
2022-12-11T04:04:14.173Z,99977.16
2022-12-11T04:09:16.999Z,99984.13
2022-12-11T04:14:37.089Z,99985.50
2022-12-11T04:19:58.782Z,99985.75
2022-12-11T04:25:01.959Z,99992.88
2022-12-11T04:30:06.476Z,99985.25
2022-12-11T04:35:12.536Z,99993.13
2022-12-11T04:40:18.652Z,99987.75
2022-12-11T04:45:21.583Z,99980.72
2022-12-11T04:50:25.748Z,99980.78
2022-12-11T04:55:28.481Z,99975.22
2022-12-11T05:00:31.267Z,99968.91
2022-12-11T05:05:35.551Z,99971.69
2022-12-11T05:10:38.296Z,99974.31
2022-12-11T05:15:41.395Z,99966.28
2022-12-11T05:20:45.805Z,99965.06
2022-12-11T05:25:53.001Z,99972.06
2022-12-11T05:30:58.945Z,99973.56
2022-12-11T05:36:03.223Z,99965.84
2022-12-11T05:41:07.804Z,99963.03
2022-12-11T05:46:14.118Z,99967.84
2022-12-11T05:51:19.888Z,99958.81
2022-12-11T05:56:26.221Z,99960.47
2022-12-11T06:01:31.833Z,99963.66
2022-12-11T06:06:36.686Z,99966.19
2022-12-11T06:11:39.503Z,99958.38
2022-12-11T06:16:42.417Z,99963.66
2022-12-11T06:21:48.802Z,99958.22
2022-12-11T06:26:51.579Z,99950.09
2022-12-11T06:31:54.440Z,99953.28
2022-12-11T06:36:58.755Z,99954.78
2022-12-11T06:42:01.504Z,99952.34
2022-12-11T06:47:05.377Z,99952.00
2022-12-11T06:52:12.504Z,99948.50
2022-12-11T06:57:19.277Z,99946.66
2022-12-11T07:02:22.218Z,99954.22
2022-12-11T07:07:26.535Z,99955.41
2022-12-11T07:12:29.318Z,99962.53
2022-12-11T07:17:32.642Z,99951.09
2022-12-11T07:22:40.343Z,99957.69
2022-12-11T07:27:46.060Z,99967.44
2022-12-11T07:32:48.830Z,99967.09
2022-12-11T07:37:52.965Z,99965.53
2022-12-11T07:42:55.737Z,99972.88
2022-12-11T07:47:59.051Z,99974.75
2022-12-11T07:53:03.146Z,99977.03
2022-12-11T07:58:06.001Z,99980.53
2022-12-11T08:03:08.921Z,99986.41
2022-12-11T08:08:13.126Z,99985.13
2022-12-11T08:13:16.177Z,99987.16
2022-12-11T08:18:19.092Z,99971.69
2022-12-11T08:23:23.265Z,99968.91
2022-12-11T08:28:27.305Z,99978.28
2022-12-11T08:33:30.228Z,99974.94
2022-12-11T08:38:34.657Z,99978.16
2022-12-11T08:43:37.699Z,99982.00
2022-12-11T08:48:42.475Z,99982.44
2022-12-11T08:53:46.604Z,99987.47
2022-12-11T08:58:49.378Z,99991.78
2022-12-11T09:03:53.525Z,99985.66
2022-12-11T09:09:00.206Z,99984.72
2022-12-11T09:14:07.547Z,99978.84
2022-12-11T09:19:14.536Z,99985.81
2022-12-11T09:24:18.672Z,99986.34
2022-12-11T09:29:21.536Z,99985.63
2022-12-11T09:34:29.174Z,99972.06
2022-12-11T09:39:33.749Z,99963.09
2022-12-11T09:44:43.235Z,99952.22
2022-12-11T09:49:48.113Z,99958.53
2022-12-11T09:54:56.918Z,99960.28
2022-12-11T10:00:17.336Z,99959.16
2022-12-11T10:05:29.193Z,99950.75
2022-12-11T10:10:41.804Z,99955.00
2022-12-11T10:15:50.660Z,99967.91
2022-12-11T10:20:54.913Z,99954.88
2022-12-11T10:26:06.885Z,99939.56
2022-12-11T10:31:18.174Z,99941.97
2022-12-11T10:36:28.869Z,99942.25
2022-12-11T10:41:39.886Z,99936.56
2022-12-11T10:46:42.735Z,99938.50
2022-12-11T10:51:45.720Z,99932.78
2022-12-11T10:56:51.549Z,99934.28
2022-12-11T11:01:55.079Z,99938.97
2022-12-11T11:07:12.660Z,99943.22
2022-12-11T11:12:22.729Z,99943.69
2022-12-11T11:17:26.895Z,99945.13
2022-12-11T11:22:33.568Z,99937.13
2022-12-11T11:27:45.132Z,99933.69
2022-12-11T11:32:48.021Z,99932.63
2022-12-11T11:37:59.347Z,99922.78
2022-12-11T11:43:17.369Z,99930.78
2022-12-11T11:48:37.535Z,99927.06
2022-12-11T11:53:41.666Z,99927.22
2022-12-11T11:58:56.145Z,99929.63
2022-12-11T12:03:59.624Z,99923.53
2022-12-11T12:09:16.041Z,99921.56
2022-12-11T12:19:58.024Z,99904.47
2022-12-11T12:25:03.560Z,99899.97
2022-12-11T12:30:17.387Z,99899.56
2022-12-11T12:35:36.487Z,99907.03
2022-12-11T12:40:49.593Z,99894.44
2022-12-11T12:46:07.429Z,99896.34
2022-12-11T12:51:14.833Z,99906.88
2022-12-11T12:56:18.198Z,99899.78
2022-12-11T13:01:23.633Z,99900.09
2022-12-11T13:06:32.149Z,99895.97
2022-12-11T13:11:37.038Z,99894.41
2022-12-11T13:16:44.064Z,99891.78
2022-12-11T13:21:57.092Z,99893.09
2022-12-11T13:27:10.244Z,99894.59
2022-12-11T13:32:25.528Z,99898.03
2022-12-11T13:37:34.660Z,99883.09
2022-12-11T13:42:45.415Z,99884.72
2022-12-11T13:47:49.675Z,99892.38
2022-12-11T13:52:56.142Z,99881.25
2022-12-11T13:57:59.504Z,99895.09
2022-12-11T14:03:08.283Z,99893.13
2022-12-11T14:08:13.435Z,99886.25
2022-12-11T14:13:23.333Z,99889.03
2022-12-11T14:18:30.411Z,99886.59
2022-12-11T14:23:34.175Z,99896.28
2022-12-11T14:28:42.584Z,99901.56
2022-12-11T14:33:50.284Z,99908.00
2022-12-11T14:38:58.523Z,99906.06
2022-12-11T14:44:05.407Z,99908.06
2022-12-11T14:49:21.276Z,99904.78
2022-12-11T14:54:30.534Z,99908.19
2022-12-11T14:59:40.310Z,99908.31
2022-12-11T15:04:45.576Z,99906.56
2022-12-11T15:09:48.399Z,99909.16
2022-12-11T15:14:53.043Z,99914.22
2022-12-11T15:20:02.500Z,99913.97
2022-12-11T15:25:06.204Z,99925.16
2022-12-11T15:30:28.198Z,99926.16
2022-12-11T15:35:32.696Z,99925.25
2022-12-11T15:40:35.525Z,99929.34
2022-12-11T15:45:38.334Z,99934.56
2022-12-11T15:50:42.753Z,99929.00
2022-12-11T15:55:45.848Z,99916.00
2022-12-11T16:00:48.615Z,99922.97
2022-12-11T16:05:53.905Z,99926.13
2022-12-11T16:10:57.337Z,99919.41
2022-12-11T16:16:00.198Z,99918.31
2022-12-11T16:21:07.273Z,99932.97
2022-12-11T16:26:10.280Z,99938.97
2022-12-11T16:31:13.522Z,99939.59
2022-12-11T16:36:19.692Z,99934.41
2022-12-11T16:41:23.775Z,99933.59
2022-12-11T16:46:26.587Z,99934.28
2022-12-11T16:51:30.765Z,99935.50
2022-12-11T16:56:34.017Z,99928.72
2022-12-11T17:01:36.968Z,99940.72
2022-12-11T17:06:41.293Z,99926.94
2022-12-11T17:11:44.109Z,99932.47
2022-12-11T17:16:48.109Z,99924.84
2022-12-11T17:21:54.098Z,99926.53
2022-12-11T17:26:56.933Z,99927.34
2022-12-11T17:31:59.828Z,99918.19
2022-12-11T17:37:04.014Z,99927.03
2022-12-11T17:42:07.060Z,99923.06
2022-12-11T17:47:11.932Z,99930.72
2022-12-11T17:52:16.065Z,99927.72
2022-12-11T17:57:18.984Z,99924.56
2022-12-11T18:02:21.972Z,99933.19
2022-12-11T18:07:26.484Z,99927.28
2022-12-11T18:12:30.936Z,99919.69
2022-12-11T18:17:34.358Z,99917.84
2022-12-11T18:22:38.742Z,99923.66
2022-12-11T18:27:42.619Z,99919.81
2022-12-11T18:32:46.182Z,99925.72
2022-12-11T18:37:50.320Z,99924.72
2022-12-11T18:42:53.183Z,99929.94
2022-12-11T18:47:56.689Z,99920.75
2022-12-11T18:53:03.217Z,99918.91
2022-12-11T18:58:06.370Z,99915.19
2022-12-11T19:03:10.005Z,99913.31
2022-12-11T19:08:16.220Z,99913.09
2022-12-11T19:13:19.076Z,99917.69
2022-12-11T19:18:21.910Z,99922.22
2022-12-11T19:23:26.044Z,99916.00
2022-12-11T19:28:28.864Z,99924.91
2022-12-11T19:33:31.648Z,99927.69
2022-12-11T19:38:35.866Z,99926.75
2022-12-11T19:43:38.703Z,99920.22
2022-12-11T19:48:41.915Z,99927.34
2022-12-11T19:53:47.756Z,99917.78
2022-12-11T19:58:50.904Z,99926.88
2022-12-11T20:03:54.290Z,99926.56
2022-12-11T20:08:59.378Z,99929.91
2022-12-11T20:14:02.206Z,99922.78
2022-12-11T20:19:05.448Z,99920.22
2022-12-11T20:24:10.341Z,99920.28
2022-12-11T20:29:13.539Z,99928.34
2022-12-11T20:34:16.464Z,99930.13
2022-12-11T20:39:20.641Z,99939.75
2022-12-11T20:44:23.472Z,99945.19
2022-12-11T20:49:26.249Z,99936.13
2022-12-11T20:54:30.445Z,99940.41
2022-12-11T20:59:33.346Z,99937.25
2022-12-11T21:04:39.722Z,99943.88
2022-12-11T21:09:43.987Z,99943.56
2022-12-11T21:14:46.747Z,99937.91
2022-12-11T21:19:50.430Z,99946.56
2022-12-11T21:24:54.521Z,99947.16
2022-12-11T21:29:57.428Z,99947.84
2022-12-11T21:35:00.182Z,99949.72
2022-12-11T21:40:04.947Z,99945.03
2022-12-11T21:50:31.527Z,99933.81
2022-12-11T21:55:35.632Z,99936.25
2022-12-11T22:00:38.941Z,99940.81
2022-12-11T22:05:41.730Z,99942.44
2022-12-11T22:10:45.911Z,99947.81
2022-12-11T22:15:48.665Z,99946.34
2022-12-11T22:20:51.571Z,99956.09
2022-12-11T22:25:56.331Z,99955.19
2022-12-11T22:30:59.359Z,99955.19
2022-12-11T22:36:02.838Z,99952.19
2022-12-11T22:41:12.925Z,99956.63
2022-12-11T22:46:17.477Z,99957.47
2022-12-11T22:51:20.438Z,99939.91
2022-12-11T22:56:24.565Z,99947.00
2022-12-11T23:01:28.972Z,99941.13
2022-12-11T23:06:31.788Z,99950.94
2022-12-11T23:11:38.376Z,99944.00
2022-12-11T23:16:41.788Z,99952.78
2022-12-11T23:21:44.829Z,99955.97
2022-12-11T23:26:49.093Z,99954.97
2022-12-11T23:31:51.832Z,99962.00
2022-12-11T23:36:54.672Z,99961.00
2022-12-11T23:41:59.013Z,99956.94
2022-12-11T23:47:01.869Z,99961.63
2022-12-11T23:52:04.743Z,99951.25
2022-12-11T23:57:08.857Z,99958.72
